createdAt,value
2017-10-14T00:01:51.359Z,13.20
2017-10-14T00:04:22.430Z,11.80
2017-10-14T00:06:53.165Z,12.75
2017-10-14T00:09:23.834Z,13.18
2017-10-14T00:11:54.604Z,13.70
2017-10-14T00:14:26.254Z,13.00
2017-10-14T00:16:57.800Z,13.45
2017-10-14T00:19:29.032Z,12.80
2017-10-14T00:21:59.942Z,12.45
2017-10-14T00:24:30.628Z,13.07
2017-10-14T00:27:01.935Z,12.82
2017-10-14T00:29:32.418Z,13.43
2017-10-14T00:32:03.107Z,14.20
2017-10-14T00:34:34.656Z,13.07
2017-10-14T00:37:05.402Z,13.77
2017-10-14T00:39:37.934Z,13.35
2017-10-14T00:42:08.304Z,12.88
2017-10-14T00:44:39.991Z,13.82
2017-10-14T00:47:10.639Z,13.38
2017-10-14T00:49:41.331Z,12.65
2017-10-14T00:52:12.249Z,12.95
2017-10-14T00:54:42.536Z,12.63
2017-10-14T00:57:13.860Z,12.95
2017-10-14T00:59:44.595Z,13.52
2017-10-14T01:02:15.641Z,13.35
2017-10-14T01:04:46.601Z,13.52
2017-10-14T01:07:17.199Z,12.73
2017-10-14T01:09:48.971Z,13.68
2017-10-14T01:12:19.837Z,13.75
2017-10-14T01:14:50.597Z,13.73
2017-10-14T01:17:21.704Z,12.68
2017-10-14T01:19:53.134Z,12.52
2017-10-14T01:22:23.938Z,12.25
2017-10-14T01:24:54.469Z,13.45
2017-10-14T01:27:27.082Z,13.73
2017-10-14T01:29:58.530Z,13.57
2017-10-14T01:32:29.412Z,13.38
2017-10-14T01:35:00.018Z,14.30
2017-10-14T01:37:30.563Z,13.90
2017-10-14T01:40:01.060Z,12.95
2017-10-14T01:42:31.966Z,11.93
2017-10-14T01:45:03.683Z,11.63
2017-10-14T01:47:34.702Z,13.68
2017-10-14T01:50:05.463Z,14.13
2017-10-14T01:52:36.416Z,12.77
2017-10-14T01:55:06.852Z,12.43
2017-10-14T01:57:37.551Z,14.10
2017-10-14T02:00:08.241Z,13.52
2017-10-14T02:02:39.109Z,13.05
2017-10-14T02:05:09.229Z,14.25
2017-10-14T02:07:40.286Z,14.25
2017-10-14T02:10:10.875Z,13.25
2017-10-14T02:12:41.637Z,13.60
2017-10-14T02:15:12.091Z,13.70
2017-10-14T02:17:42.446Z,13.82
2017-10-14T02:20:13.417Z,14.45
2017-10-14T02:22:44.228Z,14.43
2017-10-14T02:25:15.201Z,12.45
2017-10-14T02:27:46.392Z,13.48
2017-10-14T02:30:17.314Z,13.85
2017-10-14T02:32:48.381Z,13.90
2017-10-14T02:35:19.820Z,12.98
2017-10-14T02:37:50.919Z,14.02
2017-10-14T02:40:21.791Z,13.32
2017-10-14T02:42:54.034Z,13.70
2017-10-14T02:45:25.560Z,13.13
2017-10-14T02:47:56.582Z,13.77
2017-10-14T02:50:27.102Z,13.55
2017-10-14T02:52:58.174Z,13.05
2017-10-14T02:55:28.988Z,13.43
2017-10-14T02:57:59.760Z,13.38
2017-10-14T03:00:30.139Z,13.95
2017-10-14T03:03:01.546Z,13.05
2017-10-14T03:05:32.139Z,14.05
2017-10-14T03:08:02.971Z,13.50
2017-10-14T03:10:33.572Z,13.90
2017-10-14T03:13:04.957Z,14.00
2017-10-14T03:15:35.533Z,13.43
2017-10-14T03:18:06.120Z,15.15
2017-10-14T03:20:36.990Z,13.62
2017-10-14T03:23:07.779Z,14.23
2017-10-14T03:25:37.965Z,13.77
2017-10-14T03:28:08.470Z,14.87
2017-10-14T03:30:39.320Z,14.05
2017-10-14T03:33:10.751Z,14.10
2017-10-14T03:35:41.418Z,14.68
2017-10-14T03:38:11.813Z,12.88
2017-10-14T03:40:42.556Z,14.20
2017-10-14T03:43:13.360Z,15.13
2017-10-14T03:45:44.144Z,13.93
2017-10-14T03:48:14.523Z,13.70
2017-10-14T03:50:46.039Z,14.43
2017-10-14T03:53:16.892Z,15.10
2017-10-14T03:55:47.103Z,14.77
2017-10-14T03:58:18.209Z,14.98
2017-10-14T04:00:50.854Z,15.60
2017-10-14T04:03:21.475Z,15.75
2017-10-14T04:05:51.726Z,14.32
2017-10-14T04:08:22.588Z,15.27
2017-10-14T04:10:53.449Z,16.92
2017-10-14T04:13:25.043Z,16.12
2017-10-14T04:15:55.611Z,15.85
2017-10-14T04:18:27.262Z,15.95
2017-10-14T04:20:57.573Z,16.00
2017-10-14T04:23:28.472Z,16.60
2017-10-14T04:25:59.318Z,16.48
2017-10-14T04:28:30.123Z,15.77
2017-10-14T04:31:00.881Z,15.15
2017-10-14T04:33:31.657Z,18.30
2017-10-14T04:36:02.430Z,17.83
2017-10-14T04:38:33.258Z,16.60
2017-10-14T04:41:04.636Z,17.10
2017-10-14T04:43:35.556Z,17.23
2017-10-14T04:46:06.038Z,16.95
2017-10-14T04:48:37.324Z,16.65
2017-10-14T04:51:08.478Z,16.12
2017-10-14T04:53:39.349Z,17.33
2017-10-14T04:56:10.103Z,16.65
2017-10-14T04:58:41.744Z,17.25
2017-10-14T05:01:12.392Z,18.35
2017-10-14T05:03:42.929Z,17.45
2017-10-14T05:06:13.264Z,18.42
2017-10-14T05:08:44.805Z,16.55
2017-10-14T05:11:16.019Z,17.87
2017-10-14T05:13:46.849Z,17.55
2017-10-14T05:16:17.942Z,18.80
2017-10-14T05:18:48.674Z,19.05
2017-10-14T05:21:18.914Z,18.10
2017-10-14T05:23:49.761Z,17.80
2017-10-14T05:26:20.918Z,17.92
2017-10-14T05:28:51.939Z,16.58
2017-10-14T05:31:22.646Z,19.23
2017-10-14T05:33:54.068Z,17.00
2017-10-14T05:36:24.635Z,18.00
2017-10-14T05:38:55.157Z,18.37
2017-10-14T05:41:25.513Z,19.65
2017-10-14T05:43:57.241Z,18.37
2017-10-14T05:46:28.473Z,17.75
2017-10-14T05:48:59.480Z,18.17
2017-10-14T05:51:30.636Z,18.17
2017-10-14T05:54:02.089Z,17.40
2017-10-14T05:56:32.869Z,18.10
2017-10-14T05:59:03.876Z,17.70
2017-10-14T06:01:35.761Z,19.05
2017-10-14T06:04:05.968Z,17.30
2017-10-14T06:06:37.274Z,16.60
2017-10-14T06:09:07.822Z,16.52
2017-10-14T06:11:38.766Z,16.87
2017-10-14T06:14:10.309Z,17.85
2017-10-14T06:16:41.245Z,18.15
2017-10-14T06:19:12.159Z,17.92
2017-10-14T06:21:43.168Z,16.80
2017-10-14T06:24:14.150Z,16.55
2017-10-14T06:26:45.130Z,19.12
2017-10-14T06:29:16.650Z,18.30
2017-10-14T06:31:46.936Z,17.60
2017-10-14T06:34:17.558Z,17.90
2017-10-14T06:36:48.216Z,19.60
2017-10-14T06:39:18.940Z,17.20
2017-10-14T06:41:49.345Z,17.37
2017-10-14T06:44:20.182Z,16.87
2017-10-14T06:46:50.152Z,18.15
2017-10-14T06:49:20.944Z,16.27
2017-10-14T06:51:51.411Z,16.30
2017-10-14T06:54:22.165Z,15.57
2017-10-14T06:56:53.017Z,16.02
2017-10-14T06:59:24.784Z,15.75
2017-10-14T07:01:55.412Z,15.82
2017-10-14T07:04:26.194Z,15.82
2017-10-14T07:06:56.965Z,15.90
2017-10-14T07:09:28.540Z,14.82
2017-10-14T07:11:59.335Z,14.27
2017-10-14T07:14:31.064Z,14.52
2017-10-14T07:17:01.738Z,12.95
2017-10-14T07:19:33.429Z,14.23
2017-10-14T07:22:04.174Z,11.43
2017-10-14T07:24:36.103Z,12.15
2017-10-14T07:27:06.683Z,11.90
2017-10-14T07:29:37.650Z,11.95
2017-10-14T07:32:08.564Z,12.40
2017-10-14T07:34:39.233Z,10.77
2017-10-14T07:37:10.117Z,11.80
2017-10-14T07:39:40.906Z,11.95
2017-10-14T07:42:12.211Z,11.13
2017-10-14T07:44:42.889Z,11.93
2017-10-14T07:47:14.539Z,10.85
2017-10-14T07:49:45.179Z,11.77
2017-10-14T07:52:15.842Z,10.75
2017-10-14T07:54:46.858Z,10.50
2017-10-14T07:57:17.220Z,11.13
2017-10-14T07:59:47.974Z,10.93
2017-10-14T08:02:19.087Z,9.13
2017-10-14T08:04:49.891Z,9.67
2017-10-14T08:07:20.548Z,9.27
2017-10-14T08:09:51.357Z,9.70
2017-10-14T08:12:22.866Z,9.40
2017-10-14T08:14:53.725Z,8.07
2017-10-14T08:17:24.878Z,8.57
2017-10-14T08:19:56.245Z,8.20
2017-10-14T08:22:26.640Z,7.63
2017-10-14T08:24:58.414Z,7.57
2017-10-14T08:27:30.292Z,8.60
2017-10-14T08:30:01.483Z,8.30
2017-10-14T08:32:32.050Z,8.37
2017-10-14T08:35:03.693Z,8.30
2017-10-14T08:37:35.002Z,8.10
2017-10-14T08:40:05.820Z,7.63
2017-10-14T08:42:37.407Z,8.60
2017-10-14T08:45:08.643Z,8.73
2017-10-14T08:47:39.430Z,8.50
2017-10-14T08:50:10.012Z,7.40
2017-10-14T08:52:41.485Z,7.80
2017-10-14T08:55:12.404Z,8.97
2017-10-14T08:57:42.493Z,8.60
2017-10-14T09:00:14.320Z,8.20
2017-10-14T09:02:45.201Z,8.30
2017-10-14T09:05:16.351Z,8.60
2017-10-14T09:07:47.397Z,8.40
2017-10-14T09:10:18.248Z,8.23
2017-10-14T09:12:49.273Z,7.93
2017-10-14T09:15:21.029Z,7.90
2017-10-14T09:17:51.863Z,8.47
2017-10-14T09:20:22.288Z,7.43
2017-10-14T09:22:53.161Z,7.20
2017-10-14T09:25:23.959Z,6.93
2017-10-14T09:27:54.582Z,8.60
2017-10-14T09:30:25.633Z,7.30
2017-10-14T09:32:56.371Z,7.70
2017-10-14T09:35:27.713Z,6.60
2017-10-14T09:37:59.745Z,7.60
2017-10-14T09:40:30.697Z,6.57
2017-10-14T09:43:02.805Z,5.80
2017-10-14T09:45:33.685Z,7.03
2017-10-14T09:48:04.765Z,6.40
2017-10-14T09:50:35.921Z,5.90
2017-10-14T09:53:06.182Z,6.40
2017-10-14T09:55:37.016Z,6.70
2017-10-14T09:58:07.897Z,6.87
2017-10-14T10:00:38.313Z,5.87
2017-10-14T10:03:09.001Z,6.30
2017-10-14T10:05:39.900Z,6.00
2017-10-14T10:08:10.527Z,6.30
2017-10-14T10:10:41.168Z,5.67
2017-10-14T10:13:12.154Z,5.07
2017-10-14T10:15:42.929Z,5.37
2017-10-14T10:18:14.070Z,5.30
2017-10-14T10:20:44.810Z,4.80
2017-10-14T10:23:15.680Z,5.10
2017-10-14T10:25:47.617Z,4.37
2017-10-14T10:28:18.340Z,4.30
2017-10-14T10:30:49.417Z,4.73
2017-10-14T10:33:20.616Z,4.20
2017-10-14T10:35:51.585Z,3.93
2017-10-14T10:38:22.509Z,5.70
2017-10-14T10:40:53.388Z,4.40
2017-10-14T10:43:24.832Z,3.40
2017-10-14T10:45:56.126Z,3.60
2017-10-14T10:48:26.935Z,4.10
2017-10-14T10:50:57.563Z,3.13
2017-10-14T10:53:29.114Z,3.93
2017-10-14T10:56:00.332Z,4.10
2017-10-14T10:58:31.248Z,4.20
2017-10-14T11:01:01.628Z,3.60
2017-10-14T11:03:34.996Z,3.70
2017-10-14T11:06:06.413Z,4.20
2017-10-14T11:08:37.285Z,3.40
2017-10-14T11:11:07.506Z,6.47
2017-10-14T11:13:38.491Z,5.03
2017-10-14T11:16:09.417Z,4.10
2017-10-14T11:18:40.260Z,3.50
2017-10-14T11:21:11.220Z,4.10
2017-10-14T11:23:42.890Z,3.03
2017-10-14T11:26:13.583Z,3.50
2017-10-14T11:28:45.759Z,3.83
2017-10-14T11:31:17.060Z,3.63
2017-10-14T11:33:48.313Z,3.10
2017-10-14T11:36:20.068Z,3.27
2017-10-14T11:38:51.473Z,3.77
2017-10-14T11:41:22.163Z,2.63
2017-10-14T11:43:53.402Z,2.93
2017-10-14T11:46:24.521Z,2.53
2017-10-14T11:48:54.728Z,3.60
2017-10-14T11:51:25.919Z,3.40
2017-10-14T11:53:56.604Z,3.80
2017-10-14T11:56:28.024Z,3.27
2017-10-14T11:58:59.563Z,3.00
2017-10-14T12:01:30.019Z,3.37
2017-10-14T12:04:01.827Z,2.70
2017-10-14T12:06:33.192Z,4.03
2017-10-14T12:09:04.817Z,3.33
2017-10-14T12:11:35.458Z,3.53
2017-10-14T12:14:06.314Z,3.50
2017-10-14T12:16:37.387Z,3.27
2017-10-14T12:19:08.785Z,3.37
2017-10-14T12:21:39.738Z,2.97
2017-10-14T12:24:10.972Z,2.80
2017-10-14T12:26:43.357Z,3.43
2017-10-14T12:29:15.455Z,3.20
2017-10-14T12:31:46.441Z,3.03
2017-10-14T12:34:17.720Z,3.10
2017-10-14T12:36:48.778Z,4.57
2017-10-14T12:39:20.040Z,3.10
2017-10-14T12:41:51.347Z,3.33
2017-10-14T12:44:22.066Z,3.40
2017-10-14T12:46:53.461Z,3.33
2017-10-14T12:49:24.781Z,2.90
2017-10-14T12:51:55.597Z,2.53
2017-10-14T12:54:26.865Z,2.80
2017-10-14T12:56:57.563Z,2.70
2017-10-14T12:59:28.507Z,4.90
2017-10-14T13:01:59.959Z,3.40
2017-10-14T13:04:30.863Z,2.80
2017-10-14T13:07:02.387Z,3.23
2017-10-14T13:09:33.031Z,2.90
2017-10-14T13:12:04.302Z,3.30
2017-10-14T13:14:35.398Z,2.70
2017-10-14T13:17:07.728Z,2.97
2017-10-14T13:19:39.192Z,2.87
2017-10-14T13:22:10.334Z,3.30
2017-10-14T13:24:41.793Z,3.03
2017-10-14T13:27:12.586Z,2.83
2017-10-14T13:29:43.441Z,3.67
2017-10-14T13:32:14.723Z,3.43
2017-10-14T13:34:45.460Z,3.93
2017-10-14T13:37:17.208Z,4.23
2017-10-14T13:39:48.761Z,3.93
2017-10-14T13:42:20.565Z,3.83
2017-10-14T13:44:52.531Z,4.47
2017-10-14T13:47:25.174Z,3.03
2017-10-14T13:49:56.409Z,3.20
2017-10-14T13:52:27.952Z,4.57
2017-10-14T13:54:59.910Z,3.90
2017-10-14T13:57:31.348Z,4.80
2017-10-14T14:00:02.527Z,3.43
2017-10-14T14:02:34.334Z,4.27
2017-10-14T14:05:05.900Z,4.20
2017-10-14T14:07:38.602Z,4.13
2017-10-14T14:10:10.711Z,3.73
2017-10-14T14:12:42.114Z,3.17
2017-10-14T14:15:14.369Z,4.10
2017-10-14T14:17:45.979Z,3.70
2017-10-14T14:20:17.394Z,3.40
2017-10-14T14:22:48.965Z,3.70
2017-10-14T14:25:20.555Z,3.63
2017-10-14T14:27:53.620Z,3.60
2017-10-14T14:30:25.727Z,3.63
2017-10-14T14:32:57.806Z,3.43
2017-10-14T14:35:29.053Z,3.87
2017-10-14T14:38:00.692Z,4.37
2017-10-14T14:40:32.267Z,3.63
2017-10-14T14:43:03.757Z,4.03
2017-10-14T14:45:35.008Z,3.90
2017-10-14T14:48:07.191Z,3.90
2017-10-14T14:50:38.876Z,4.50
2017-10-14T14:53:11.522Z,3.50
2017-10-14T14:55:44.115Z,4.07
2017-10-14T14:58:17.056Z,4.03
2017-10-14T15:00:48.705Z,4.10
2017-10-14T15:03:19.710Z,4.40
2017-10-14T15:05:51.136Z,4.03
2017-10-14T15:08:22.643Z,3.70
2017-10-14T15:10:54.524Z,4.07
2017-10-14T15:13:26.820Z,3.60
2017-10-14T15:15:59.089Z,3.60
2017-10-14T15:18:30.479Z,3.60
2017-10-14T15:21:01.818Z,4.63
2017-10-14T15:23:34.541Z,3.40
2017-10-14T15:26:05.750Z,3.60
2017-10-14T15:28:36.552Z,3.40
2017-10-14T15:31:08.166Z,3.97
2017-10-14T15:33:40.274Z,4.30
2017-10-14T15:36:12.078Z,3.27
2017-10-14T15:38:42.865Z,3.60
2017-10-14T15:41:15.121Z,4.20
2017-10-14T15:43:46.624Z,4.23
2017-10-14T15:46:17.828Z,3.83
2017-10-14T15:48:49.180Z,3.97
2017-10-14T15:51:21.127Z,3.50
2017-10-14T15:53:52.842Z,3.60
2017-10-14T15:56:23.760Z,4.37
2017-10-14T15:58:55.675Z,3.87
2017-10-14T16:01:27.343Z,4.00
2017-10-14T16:03:58.650Z,3.97
2017-10-14T16:06:30.876Z,3.90
2017-10-14T16:09:03.565Z,4.30
2017-10-14T16:11:35.084Z,5.03
2017-10-14T16:14:06.617Z,4.20
2017-10-14T16:16:38.581Z,4.17
2017-10-14T16:19:10.842Z,4.67
2017-10-14T16:21:42.376Z,4.50
2017-10-14T16:24:13.675Z,5.07
2017-10-14T16:26:45.552Z,4.73
2017-10-14T16:29:17.029Z,5.30
2017-10-14T16:31:48.684Z,4.50
2017-10-14T16:34:21.172Z,4.53
2017-10-14T16:36:52.739Z,4.50
2017-10-14T16:39:25.441Z,5.57
2017-10-14T16:41:56.744Z,5.60
2017-10-14T16:44:28.707Z,4.90
2017-10-14T16:47:00.918Z,5.27
2017-10-14T16:49:31.952Z,5.17
2017-10-14T16:52:03.381Z,5.57
2017-10-14T16:54:34.863Z,5.60
2017-10-14T16:57:06.737Z,6.07
2017-10-14T16:59:39.200Z,6.37
2017-10-14T17:02:10.422Z,6.80
2017-10-14T17:04:41.657Z,6.47
2017-10-14T17:07:14.148Z,6.23
2017-10-14T17:09:47.163Z,7.17
2017-10-14T17:12:19.532Z,7.10
2017-10-14T17:14:51.610Z,7.73
2017-10-14T17:17:23.095Z,7.70
2017-10-14T17:19:54.247Z,7.67
2017-10-14T17:22:25.673Z,8.30
2017-10-14T17:24:57.681Z,12.53
2017-10-14T17:27:28.558Z,12.93
2017-10-14T17:30:00.747Z,13.60
2017-10-14T17:32:32.001Z,10.80
2017-10-14T17:35:02.808Z,12.27
2017-10-14T17:37:35.461Z,12.03
2017-10-14T17:40:07.400Z,17.57
2017-10-14T17:42:39.007Z,16.73
2017-10-14T17:45:11.001Z,13.40
2017-10-14T17:47:42.647Z,13.43
2017-10-14T17:50:13.733Z,11.63
2017-10-14T17:52:45.459Z,13.90
2017-10-14T17:55:17.459Z,11.37
2017-10-14T17:57:50.419Z,11.50
2017-10-14T18:00:21.857Z,9.67
2017-10-14T18:02:53.057Z,9.53
2017-10-14T18:05:25.362Z,11.30
2017-10-14T18:07:56.607Z,9.93
2017-10-14T18:10:28.179Z,10.00
2017-10-14T18:12:59.581Z,10.17
2017-10-14T18:15:30.813Z,9.87
2017-10-14T18:18:01.628Z,9.23
2017-10-14T18:20:32.696Z,9.80
2017-10-14T18:23:05.211Z,9.67
2017-10-14T18:25:36.379Z,9.03
2017-10-14T18:28:07.570Z,10.30
2017-10-14T18:30:38.699Z,10.20
2017-10-14T18:33:10.980Z,9.50
2017-10-14T18:35:42.371Z,10.97
2017-10-14T18:38:13.467Z,9.70
2017-10-14T18:40:45.401Z,9.80
2017-10-14T18:43:16.916Z,10.67
2017-10-14T18:45:48.614Z,9.30
2017-10-14T18:48:20.623Z,9.73
2017-10-14T18:50:51.661Z,11.03
2017-10-14T18:53:23.502Z,10.93
2017-10-14T18:55:55.342Z,13.13
2017-10-14T18:58:26.341Z,10.13
2017-10-14T19:00:58.291Z,15.73
2017-10-14T19:03:29.919Z,16.17
2017-10-14T19:06:02.369Z,16.60
2017-10-14T19:08:34.196Z,18.43
2017-10-14T19:11:05.207Z,17.60
2017-10-14T19:13:36.725Z,19.17
2017-10-14T19:16:07.768Z,18.57
2017-10-14T19:18:39.939Z,15.20
2017-10-14T19:21:12.253Z,17.03
2017-10-14T19:23:43.915Z,16.17
2017-10-14T19:26:15.561Z,15.83
2017-10-14T19:28:47.287Z,17.57
2017-10-14T19:31:18.773Z,18.20
2017-10-14T19:33:50.523Z,14.30
2017-10-14T19:36:22.416Z,15.20
2017-10-14T19:38:53.807Z,15.97
2017-10-14T19:41:25.802Z,14.73
2017-10-14T19:43:56.694Z,15.27
2017-10-14T19:46:27.664Z,14.60
2017-10-14T19:48:58.678Z,16.27
2017-10-14T19:51:30.692Z,15.53
2017-10-14T19:54:03.546Z,15.50
2017-10-14T19:56:34.639Z,16.17
2017-10-14T19:59:05.605Z,15.80
2017-10-14T20:01:37.069Z,16.97
2017-10-14T20:04:08.724Z,16.17
2017-10-14T20:06:40.121Z,16.90
2017-10-14T20:09:13.592Z,19.17
2017-10-14T20:11:46.481Z,18.20
2017-10-14T20:14:17.165Z,17.63
2017-10-14T20:16:49.205Z,16.07
2017-10-14T20:19:20.645Z,22.13
2017-10-14T20:21:52.530Z,17.73
2017-10-14T20:24:24.099Z,21.30
2017-10-14T20:26:55.828Z,17.00
2017-10-14T20:29:26.769Z,16.17
2017-10-14T20:31:58.391Z,17.07
2017-10-14T20:34:29.421Z,17.30
2017-10-14T20:37:00.413Z,15.93
2017-10-14T20:39:31.527Z,15.70
2017-10-14T20:42:02.493Z,15.87
2017-10-14T20:44:33.598Z,17.67
2017-10-14T20:47:05.550Z,16.80
2017-10-14T20:49:36.717Z,16.63
2017-10-14T20:52:08.028Z,16.23
2017-10-14T20:54:38.963Z,16.00
2017-10-14T20:57:10.325Z,16.52
2017-10-14T20:59:40.857Z,17.70
2017-10-14T21:02:12.248Z,17.83
2017-10-14T21:04:43.148Z,17.40
2017-10-14T21:07:14.543Z,18.40
2017-10-14T21:09:45.017Z,21.80
2017-10-14T21:12:16.558Z,22.30
2017-10-14T21:14:47.598Z,21.60
2017-10-14T21:17:18.630Z,22.77
2017-10-14T21:19:50.224Z,20.97
2017-10-14T21:22:21.540Z,23.33
2017-10-14T21:24:52.995Z,24.30
2017-10-14T21:27:24.587Z,21.90
2017-10-14T21:29:55.708Z,21.30
2017-10-14T21:32:26.968Z,22.13
2017-10-14T21:34:58.317Z,22.90
2017-10-14T21:37:30.513Z,31.17
2017-10-14T21:40:02.095Z,26.48
2017-10-14T21:42:34.036Z,21.30
2017-10-14T21:45:05.650Z,20.77
2017-10-14T21:47:36.299Z,19.62
2017-10-14T21:50:07.440Z,17.95
2017-10-14T21:52:38.824Z,17.87
2017-10-14T21:55:09.500Z,16.80
2017-10-14T21:57:41.166Z,17.33
2017-10-14T22:00:13.016Z,19.25
2017-10-14T22:02:44.055Z,15.85
2017-10-14T22:05:14.680Z,16.95
2017-10-14T22:07:45.261Z,16.35
2017-10-14T22:10:17.040Z,18.17
2017-10-14T22:12:48.572Z,16.73
2017-10-14T22:15:19.722Z,15.93
2017-10-14T22:17:51.640Z,17.10
2017-10-14T22:20:22.834Z,17.17
2017-10-14T22:22:55.074Z,18.45
2017-10-14T22:25:27.138Z,16.75
2017-10-14T22:27:57.920Z,18.37
2017-10-14T22:30:29.041Z,18.27
2017-10-14T22:33:00.982Z,17.75
2017-10-14T22:35:31.838Z,16.42
2017-10-14T22:38:03.227Z,16.00
2017-10-14T22:40:33.950Z,16.92
2017-10-14T22:43:05.269Z,15.25
2017-10-14T22:45:37.109Z,16.30
2017-10-14T22:48:08.238Z,15.75
2017-10-14T22:50:39.567Z,16.37
2017-10-14T22:53:11.630Z,16.37
2017-10-14T22:55:42.792Z,17.02
2017-10-14T22:58:13.721Z,15.70
2017-10-14T23:00:44.944Z,17.52
2017-10-14T23:03:15.915Z,14.75
2017-10-14T23:05:46.586Z,15.52
2017-10-14T23:08:17.895Z,15.25
2017-10-14T23:10:49.196Z,15.68
2017-10-14T23:13:20.414Z,16.90
2017-10-14T23:15:53.144Z,15.73
2017-10-14T23:18:24.436Z,16.15
2017-10-14T23:20:55.782Z,15.27
2017-10-14T23:23:27.259Z,15.70
2017-10-14T23:25:58.093Z,17.50
2017-10-14T23:28:29.020Z,17.42
2017-10-14T23:30:59.918Z,14.63
2017-10-14T23:33:31.758Z,16.80
2017-10-14T23:36:02.738Z,16.37
2017-10-14T23:38:34.384Z,16.80
2017-10-14T23:41:04.649Z,16.40
2017-10-14T23:43:35.519Z,16.10
2017-10-14T23:46:07.125Z,14.80
2017-10-14T23:48:38.613Z,15.70
2017-10-14T23:51:09.553Z,14.68
2017-10-14T23:53:40.631Z,15.23
2017-10-14T23:56:11.224Z,14.98
2017-10-14T23:58:42.596Z,16.30
